sensor_id;sensor_type;location;lat;lon;timestamp;pressure;altitude;pressure_sealevel;temperature;humidity
57192;BME280;43052;52.588;13.396;2022-10-17T00:01:20;101815.19;;;13.11;72.34
57192;BME280;43052;52.588;13.396;2022-10-17T00:03:45;101835.31;;;13.19;72.34
57192;BME280;43052;52.588;13.396;2022-10-17T00:06:12;101835.34;;;13.20;72.15
57192;BME280;43052;52.588;13.396;2022-10-17T00:08:39;101826.59;;;13.12;72.10
57192;BME280;43052;52.588;13.396;2022-10-17T00:11:07;101837.06;;;13.20;72.12
57192;BME280;43052;52.588;13.396;2022-10-17T00:13:33;101843.19;;;13.19;72.03
57192;BME280;43052;52.588;13.396;2022-10-17T00:15:59;101837.06;;;13.15;72.31
57192;BME280;43052;52.588;13.396;2022-10-17T00:18:25;101832.72;;;13.15;72.19
57192;BME280;43052;52.588;13.396;2022-10-17T00:20:50;101833.59;;;13.22;72.31
57192;BME280;43052;52.588;13.396;2022-10-17T00:23:15;101815.22;;;13.18;72.22
57192;BME280;43052;52.588;13.396;2022-10-17T00:25:41;101811.72;;;13.15;72.29
57192;BME280;43052;52.588;13.396;2022-10-17T00:28:10;101816.94;;;13.12;72.56
57192;BME280;43052;52.588;13.396;2022-10-17T00:30:36;101830.06;;;13.14;72.39
57192;BME280;43052;52.588;13.396;2022-10-17T00:33:01;101827.44;;;13.08;72.48
57192;BME280;43052;52.588;13.396;2022-10-17T00:35:26;101827.44;;;13.00;72.41
57192;BME280;43052;52.588;13.396;2022-10-17T00:37:52;101817.81;;;13.05;72.51
57192;BME280;43052;52.588;13.396;2022-10-17T00:40:17;101812.56;;;13.10;72.47
57192;BME280;43052;52.588;13.396;2022-10-17T00:42:42;101811.69;;;13.08;72.43
57192;BME280;43052;52.588;13.396;2022-10-17T00:45:27;101817.81;;;13.02;72.41
57192;BME280;43052;52.588;13.396;2022-10-17T00:47:57;101816.94;;;12.97;72.68
57192;BME280;43052;52.588;13.396;2022-10-17T00:50:24;101819.56;;;12.92;72.79
57192;BME280;43052;52.588;13.396;2022-10-17T00:52:50;101835.31;;;12.92;72.78
57192;BME280;43052;52.588;13.396;2022-10-17T00:55:22;101837.06;;;12.98;72.85
57192;BME280;43052;52.588;13.396;2022-10-17T00:57:49;101827.41;;;12.94;72.81
57192;BME280;43052;52.588;13.396;2022-10-17T01:00:15;101848.47;;;13.06;72.80
57192;BME280;43052;52.588;13.396;2022-10-17T01:02:41;101836.22;;;13.08;72.83
57192;BME280;43052;52.588;13.396;2022-10-17T01:05:07;101842.31;;;13.15;72.57
57192;BME280;43052;52.588;13.396;2022-10-17T01:07:33;101841.47;;;13.21;72.84
57192;BME280;43052;52.588;13.396;2022-10-17T01:09:58;101818.69;;;13.20;72.83
57192;BME280;43052;52.588;13.396;2022-10-17T01:12:28;101802.94;;;13.10;72.94
57192;BME280;43052;52.588;13.396;2022-10-17T01:15:41;101808.19;;;13.07;73.41
57192;BME280;43052;52.588;13.396;2022-10-17T01:18:23;101788.91;;;12.93;73.60
57192;BME280;43052;52.588;13.396;2022-10-17T01:21:14;101812.56;;;12.94;73.76
57192;BME280;43052;52.588;13.396;2022-10-17T01:24:11;101803.78;;;12.88;73.89
57192;BME280;43052;52.588;13.396;2022-10-17T01:27:16;101806.41;;;12.78;73.64
57192;BME280;43052;52.588;13.396;2022-10-17T01:30:15;101805.50;;;12.64;73.88
57192;BME280;43052;52.588;13.396;2022-10-17T01:32:48;101817.75;;;12.68;73.86
57192;BME280;43052;52.588;13.396;2022-10-17T01:35:25;101812.50;;;12.62;73.91
57192;BME280;43052;52.588;13.396;2022-10-17T01:38:16;101802.00;;;12.60;74.66
57192;BME280;43052;52.588;13.396;2022-10-17T01:40:54;101800.22;;;12.58;74.53
57192;BME280;43052;52.588;13.396;2022-10-17T01:43:34;101795.00;;;12.67;75.13
57192;BME280;43052;52.588;13.396;2022-10-17T01:46:19;101797.63;;;12.70;75.66
57192;BME280;43052;52.588;13.396;2022-10-17T01:48:46;101773.13;;;12.62;75.20
57192;BME280;43052;52.588;13.396;2022-10-17T01:51:17;101795.00;;;12.67;75.13
57192;BME280;43052;52.588;13.396;2022-10-17T01:53:49;101791.50;;;12.62;75.27
57192;BME280;43052;52.588;13.396;2022-10-17T01:56:17;101797.59;;;12.56;75.20
57192;BME280;43052;52.588;13.396;2022-10-17T01:58:49;101797.59;;;12.51;75.39
57192;BME280;43052;52.588;13.396;2022-10-17T02:01:17;101787.06;;;12.48;75.66
57192;BME280;43052;52.588;13.396;2022-10-17T02:03:44;101773.06;;;12.37;75.82
57192;BME280;43052;52.588;13.396;2022-10-17T02:06:11;101784.44;;;12.42;75.88
57192;BME280;43052;52.588;13.396;2022-10-17T02:08:45;101786.19;;;12.38;76.15
57192;BME280;43052;52.588;13.396;2022-10-17T02:11:20;101788.78;;;12.35;76.39
57192;BME280;43052;52.588;13.396;2022-10-17T02:19:32;101793.13;;;12.27;77.07
57192;BME280;43052;52.588;13.396;2022-10-17T02:22:16;101790.50;;;12.27;77.04
57192;BME280;43052;52.588;13.396;2022-10-17T02:27:28;101784.38;;;12.23;77.08
57192;BME280;43052;52.588;13.396;2022-10-17T02:30:04;101782.59;;;12.18;77.26
57192;BME280;43052;52.588;13.396;2022-10-17T02:32:43;101785.25;;;12.22;77.37
57192;BME280;43052;52.588;13.396;2022-10-17T02:35:12;101796.66;;;12.32;77.30
57192;BME280;43052;52.588;13.396;2022-10-17T02:37:39;101780.94;;;12.43;77.60
57192;BME280;43052;52.588;13.396;2022-10-17T02:40:06;101782.72;;;12.52;77.57
57192;BME280;43052;52.588;13.396;2022-10-17T02:42:33;101769.63;;;12.53;77.45
57192;BME280;43052;52.588;13.396;2022-10-17T02:45:00;101781.03;;;12.65;77.49
57192;BME280;43052;52.588;13.396;2022-10-17T02:47:31;101786.28;;;12.71;77.35
57192;BME280;43052;52.588;13.396;2022-10-17T02:49:58;101765.28;;;12.73;77.21
57192;BME280;43052;52.588;13.396;2022-10-17T02:52:37;101775.78;;;12.83;76.93
57192;BME280;43052;52.588;13.396;2022-10-17T02:57:36;101765.28;;;12.82;76.77
57192;BME280;43052;52.588;13.396;2022-10-17T03:00:06;101771.44;;;12.82;76.92
57192;BME280;43052;52.588;13.396;2022-10-17T03:02:47;101774.91;;;12.88;77.09
57192;BME280;43052;52.588;13.396;2022-10-17T03:05:16;101768.78;;;12.90;76.87
57192;BME280;43052;52.588;13.396;2022-10-17T03:07:42;101769.66;;;12.94;76.94
57192;BME280;43052;52.588;13.396;2022-10-17T03:10:07;101761.78;;;12.89;76.63
57192;BME280;43052;52.588;13.396;2022-10-17T03:12:32;101756.53;;;12.83;76.93
57192;BME280;43052;52.588;13.396;2022-10-17T03:14:58;101756.53;;;12.83;77.44
57192;BME280;43052;52.588;13.396;2022-10-17T03:17:23;101761.78;;;12.84;77.17
57192;BME280;43052;52.588;13.396;2022-10-17T03:19:48;101769.66;;;12.88;77.21
57192;BME280;43052;52.588;13.396;2022-10-17T03:22:13;101769.66;;;12.94;77.37
57192;BME280;43052;52.588;13.396;2022-10-17T03:24:39;101774.03;;;12.95;77.18
57192;BME280;43052;52.588;13.396;2022-10-17T03:27:04;101777.56;;;13.01;76.97
57192;BME280;43052;52.588;13.396;2022-10-17T03:29:29;101776.69;;;13.09;77.15
57192;BME280;43052;52.588;13.396;2022-10-17T03:31:55;101774.94;;;13.12;76.79
57192;BME280;43052;52.588;13.396;2022-10-17T03:34:20;101768.81;;;13.16;76.76
57192;BME280;43052;52.588;13.396;2022-10-17T03:36:45;101764.41;;;13.17;77.04
57192;BME280;43052;52.588;13.396;2022-10-17T03:39:11;101746.03;;;13.08;76.99
57192;BME280;43052;52.588;13.396;2022-10-17T03:41:36;101764.41;;;13.19;76.82
57192;BME280;43052;52.588;13.396;2022-10-17T03:44:02;101744.31;;;13.13;77.09
57192;BME280;43052;52.588;13.396;2022-10-17T03:46:27;101756.53;;;13.14;77.49
57192;BME280;43052;52.588;13.396;2022-10-17T03:48:52;101756.53;;;13.08;77.79
57192;BME280;43052;52.588;13.396;2022-10-17T03:51:17;101757.44;;;13.05;78.33
57192;BME280;43052;52.588;13.396;2022-10-17T03:53:43;101760.06;;;13.04;78.51
57192;BME280;43052;52.588;13.396;2022-10-17T03:56:15;101760.03;;;13.07;78.92
57192;BME280;43052;52.588;13.396;2022-10-17T03:58:41;101757.44;;;13.08;79.27
57192;BME280;43052;52.588;13.396;2022-10-17T04:01:08;101746.91;;;13.05;79.44
57192;BME280;43052;52.588;13.396;2022-10-17T04:03:34;101752.16;;;13.14;80.60
57192;BME280;43052;52.588;13.396;2022-10-17T04:06:00;101748.66;;;13.17;81.41
57192;BME280;43052;52.588;13.396;2022-10-17T04:08:27;101748.66;;;13.17;81.38
57192;BME280;43052;52.588;13.396;2022-10-17T04:10:57;101743.41;;;13.22;81.44
57192;BME280;43052;52.588;13.396;2022-10-17T04:13:23;101739.03;;;13.21;81.21
57192;BME280;43052;52.588;13.396;2022-10-17T04:16:00;101736.41;;;13.21;81.54
57192;BME280;43052;52.588;13.396;2022-10-17T04:18:25;101740.78;;;13.22;81.80
57192;BME280;43052;52.588;13.396;2022-10-17T04:20:50;101739.03;;;13.21;81.88
57192;BME280;43052;52.588;13.396;2022-10-17T04:23:16;101747.78;;;13.20;82.09
57192;BME280;43052;52.588;13.396;2022-10-17T04:25:41;101752.16;;;13.21;82.76
57192;BME280;43052;52.588;13.396;2022-10-17T04:28:06;101734.66;;;13.15;82.80
57192;BME280;43052;52.588;13.396;2022-10-17T04:30:32;101744.28;;;13.16;82.92
57192;BME280;43052;52.588;13.396;2022-10-17T04:32:57;101750.44;;;13.21;82.93
57192;BME280;43052;52.588;13.396;2022-10-17T04:35:22;101746.91;;;13.21;82.77
57192;BME280;43052;52.588;13.396;2022-10-17T04:37:47;101751.28;;;13.22;82.94
57192;BME280;43052;52.588;13.396;2022-10-17T04:40:13;101743.41;;;13.23;82.88
57192;BME280;43052;52.588;13.396;2022-10-17T04:42:38;101741.66;;;13.24;82.96
57192;BME280;43052;52.588;13.396;2022-10-17T04:45:04;101744.31;;;13.22;83.13
57192;BME280;43052;52.588;13.396;2022-10-17T04:47:29;101737.28;;;13.20;83.09
57192;BME280;43052;52.588;13.396;2022-10-17T04:49:54;101732.03;;;13.20;82.87
57192;BME280;43052;52.588;13.396;2022-10-17T04:52:20;101743.41;;;13.19;83.11
57192;BME280;43052;52.588;13.396;2022-10-17T04:54:45;101736.41;;;13.14;83.24
57192;BME280;43052;52.588;13.396;2022-10-17T04:57:10;101719.78;;;13.08;83.18
57192;BME280;43052;52.588;13.396;2022-10-17T04:59:36;101730.28;;;13.14;83.19
57192;BME280;43052;52.588;13.396;2022-10-17T05:02:01;101727.66;;;13.09;83.30
57192;BME280;43052;52.588;13.396;2022-10-17T05:04:26;101731.16;;;13.11;83.00
57192;BME280;43052;52.588;13.396;2022-10-17T05:06:51;101727.66;;;13.09;83.25
57192;BME280;43052;52.588;13.396;2022-10-17T05:09:16;101734.69;;;13.07;83.40
57192;BME280;43052;52.588;13.396;2022-10-17T05:11:42;101723.28;;;13.02;83.43
57192;BME280;43052;52.588;13.396;2022-10-17T05:14:07;101731.16;;;13.02;83.41
57192;BME280;43052;52.588;13.396;2022-10-17T05:16:33;101738.19;;;13.06;83.63
57192;BME280;43052;52.588;13.396;2022-10-17T05:18:59;101737.31;;;13.12;83.83
57192;BME280;43052;52.588;13.396;2022-10-17T05:21:26;101737.31;;;13.12;83.92
57192;BME280;43052;52.588;13.396;2022-10-17T05:23:52;101739.91;;;13.15;84.18
57192;BME280;43052;52.588;13.396;2022-10-17T05:26:18;101746.91;;;13.19;84.15
57192;BME280;43052;52.588;13.396;2022-10-17T05:28:43;101738.16;;;13.20;84.62
57192;BME280;43052;52.588;13.396;2022-10-17T05:31:09;101740.78;;;13.23;85.00
57192;BME280;43052;52.588;13.396;2022-10-17T05:33:35;101744.25;;;13.27;85.62
57192;BME280;43052;52.588;13.396;2022-10-17T05:36:01;101745.16;;;13.29;85.32
57192;BME280;43052;52.588;13.396;2022-10-17T05:38:27;101730.28;;;13.26;85.64
57192;BME280;43052;52.588;13.396;2022-10-17T05:40:59;101733.78;;;13.33;85.44
57192;BME280;43052;52.588;13.396;2022-10-17T05:43:25;101725.03;;;13.29;85.52
57192;BME280;43052;52.588;13.396;2022-10-17T05:45:51;101737.28;;;13.41;85.34
57192;BME280;43052;52.588;13.396;2022-10-17T05:48:17;101736.41;;;13.44;85.30
57192;BME280;43052;52.588;13.396;2022-10-17T05:50:42;101724.13;;;13.38;85.28
57192;BME280;43052;52.588;13.396;2022-10-17T05:53:08;101739.91;;;13.51;85.12
57192;BME280;43052;52.588;13.396;2022-10-17T05:55:34;101725.03;;;13.45;85.08
57192;BME280;43052;52.588;13.396;2022-10-17T05:57:59;101744.25;;;13.61;85.00
57192;BME280;43052;52.588;13.396;2022-10-17T06:00:25;101742.47;;;13.63;84.93
57192;BME280;43052;52.588;13.396;2022-10-17T06:02:50;101756.44;;;13.81;84.93
57192;BME280;43052;52.588;13.396;2022-10-17T06:05:15;101759.91;;;13.93;84.46
57192;BME280;43052;52.588;13.396;2022-10-17T06:07:41;101761.63;;;14.07;83.89
57192;BME280;43052;52.588;13.396;2022-10-17T06:10:06;101751.09;;;14.15;83.97
57192;BME280;43052;52.588;13.396;2022-10-17T06:12:32;101763.25;;;14.33;83.45
57192;BME280;43052;52.588;13.396;2022-10-17T06:14:57;101764.94;;;14.46;82.88
57192;BME280;43052;52.588;13.396;2022-10-17T06:17:23;101757.91;;;14.54;82.52
57192;BME280;43052;52.588;13.396;2022-10-17T06:19:48;101769.19;;;14.75;82.11
57192;BME280;43052;52.588;13.396;2022-10-17T06:22:13;101776.06;;;14.92;81.35
57192;BME280;43052;52.588;13.396;2022-10-17T06:24:39;101779.50;;;15.04;80.68
57192;BME280;43052;52.588;13.396;2022-10-17T06:27:04;101783.72;;;15.27;80.12
57192;BME280;43052;52.588;13.396;2022-10-17T06:29:30;101771.22;;;15.46;79.35
57192;BME280;43052;52.588;13.396;2022-10-17T06:31:55;101782.41;;;15.69;77.59
57192;BME280;43052;52.588;13.396;2022-10-17T06:34:21;101785.66;;;15.97;77.12
57192;BME280;43052;52.588;13.396;2022-10-17T06:36:46;101783.50;;;16.28;75.20
57192;BME280;43052;52.588;13.396;2022-10-17T06:39:12;101775.03;;;16.69;74.51
57192;BME280;43052;52.588;13.396;2022-10-17T06:41:37;101789.91;;;17.32;72.51
57192;BME280;43052;52.588;13.396;2022-10-17T06:44:05;101788.34;;;17.69;70.83
57192;BME280;43052;52.588;13.396;2022-10-17T06:46:35;101794.81;;;18.01;69.07
57192;BME280;43052;52.588;13.396;2022-10-17T06:49:00;101797.47;;;18.43;68.23
57192;BME280;43052;52.588;13.396;2022-10-17T06:51:25;101789.06;;;19.01;65.72
57192;BME280;43052;52.588;13.396;2022-10-17T06:53:50;101788.31;;;19.32;64.97
57192;BME280;43052;52.588;13.396;2022-10-17T06:56:16;101780.25;;;19.35;63.32
57192;BME280;43052;52.588;13.396;2022-10-17T06:58:41;101786.25;;;19.44;63.44
57192;BME280;43052;52.588;13.396;2022-10-17T07:01:09;101779.78;;;19.54;63.04
57192;BME280;43052;52.588;13.396;2022-10-17T07:03:35;101770.69;;;19.96;61.97
57192;BME280;43052;52.588;13.396;2022-10-17T07:06:01;101796.22;;;20.60;60.03
57192;BME280;43052;52.588;13.396;2022-10-17T07:08:26;101785.84;;;21.09;59.13
57192;BME280;43052;52.588;13.396;2022-10-17T07:10:52;101788.88;;;22.23;56.34
57192;BME280;43052;52.588;13.396;2022-10-17T07:13:18;101786.59;;;23.87;52.27
57192;BME280;43052;52.588;13.396;2022-10-17T07:15:43;101786.53;;;24.84;50.23
57192;BME280;43052;52.588;13.396;2022-10-17T07:18:09;101781.25;;;25.70;48.35
57192;BME280;43052;52.588;13.396;2022-10-17T07:20:35;101792.88;;;26.52;47.26
57192;BME280;43052;52.588;13.396;2022-10-17T07:23:00;101800.28;;;27.26;44.75
57192;BME280;43052;52.588;13.396;2022-10-17T07:25:25;101801.13;;;28.00;43.54
57192;BME280;43052;52.588;13.396;2022-10-17T07:27:51;101799.63;;;28.10;42.07
57192;BME280;43052;52.588;13.396;2022-10-17T07:30:17;101803.91;;;27.70;41.65
57192;BME280;43052;52.588;13.396;2022-10-17T07:32:43;101809.13;;;27.28;42.89
57192;BME280;43052;52.588;13.396;2022-10-17T07:35:09;101810.75;;;27.00;42.38
57192;BME280;43052;52.588;13.396;2022-10-17T07:37:35;101806.63;;;27.25;41.75
57192;BME280;43052;52.588;13.396;2022-10-17T07:40:00;101800.88;;;28.19;40.71
57192;BME280;43052;52.588;13.396;2022-10-17T07:42:25;101798.06;;;28.63;39.85
57192;BME280;43052;52.588;13.396;2022-10-17T07:44:52;101801.66;;;29.69;37.73
57192;BME280;43052;52.588;13.396;2022-10-17T07:47:17;101799.03;;;30.81;35.66
57192;BME280;43052;52.588;13.396;2022-10-17T07:49:42;101796.59;;;31.83;34.37
57192;BME280;43052;52.588;13.396;2022-10-17T07:52:10;101801.72;;;32.76;31.86
57192;BME280;43052;52.588;13.396;2022-10-17T07:54:36;101802.91;;;33.58;31.05
57192;BME280;43052;52.588;13.396;2022-10-17T07:57:01;101801.00;;;34.01;30.36
57192;BME280;43052;52.588;13.396;2022-10-17T07:59:27;101812.69;;;34.52;28.73
57192;BME280;43052;52.588;13.396;2022-10-17T08:01:55;101812.88;;;34.99;27.13
57192;BME280;43052;52.588;13.396;2022-10-17T08:04:20;101804.44;;;35.03;27.87
57192;BME280;43052;52.588;13.396;2022-10-17T08:06:45;101799.22;;;35.49;27.22
57192;BME280;43052;52.588;13.396;2022-10-17T08:09:10;101797.28;;;35.69;26.61
57192;BME280;43052;52.588;13.396;2022-10-17T08:11:36;101793.69;;;36.06;26.67
57192;BME280;43052;52.588;13.396;2022-10-17T08:14:01;101795.78;;;36.94;25.46
57192;BME280;43052;52.588;13.396;2022-10-17T08:16:26;101805.16;;;37.62;24.34
57192;BME280;43052;52.588;13.396;2022-10-17T08:18:52;101796.00;;;38.23;23.66
57192;BME280;43052;52.588;13.396;2022-10-17T08:21:17;101788.81;;;38.14;23.10
57192;BME280;43052;52.588;13.396;2022-10-17T08:23:42;101794.69;;;38.35;22.38
57192;BME280;43052;52.588;13.396;2022-10-17T08:26:09;101796.81;;;38.83;22.50
57192;BME280;43052;52.588;13.396;2022-10-17T08:28:38;101799.88;;;38.96;22.04
57192;BME280;43052;52.588;13.396;2022-10-17T08:31:11;101794.94;;;38.92;22.10
57192;BME280;43052;52.588;13.396;2022-10-17T08:33:36;101796.88;;;38.32;22.34
57192;BME280;43052;52.588;13.396;2022-10-17T08:36:03;101800.00;;;37.33;23.70
57192;BME280;43052;52.588;13.396;2022-10-17T08:38:29;101801.00;;;37.06;23.87
57192;BME280;43052;52.588;13.396;2022-10-17T08:41:02;101795.25;;;36.73;24.53
57192;BME280;43052;52.588;13.396;2022-10-17T08:43:46;101794.91;;;37.12;23.34
57192;BME280;43052;52.588;13.396;2022-10-17T08:46:15;101784.75;;;38.18;22.51
57192;BME280;43052;52.588;13.396;2022-10-17T08:48:42;101793.72;;;38.86;21.62
57192;BME280;43052;52.588;13.396;2022-10-17T08:51:20;101785.09;;;39.47;21.24
57192;BME280;43052;52.588;13.396;2022-10-17T08:53:52;101780.63;;;40.34;20.33
57192;BME280;43052;52.588;13.396;2022-10-17T08:56:34;101785.78;;;40.60;19.95
57192;BME280;43052;52.588;13.396;2022-10-17T08:59:04;101783.47;;;41.25;19.46
57192;BME280;43052;52.588;13.396;2022-10-17T09:01:45;101781.56;;;41.26;18.86
57192;BME280;43052;52.588;13.396;2022-10-17T09:04:37;101777.78;;;41.27;18.99
57192;BME280;43052;52.588;13.396;2022-10-17T09:07:15;101781.59;;;41.41;18.76
57192;BME280;43052;52.588;13.396;2022-10-17T09:12:21;101798.59;;;41.36;19.07
57192;BME280;43052;52.588;13.396;2022-10-17T09:15:15;101794.63;;;41.24;18.86
57192;BME280;43052;52.588;13.396;2022-10-17T09:17:52;101794.22;;;41.12;19.08
57192;BME280;43052;52.588;13.396;2022-10-17T09:20:22;101795.88;;;41.36;18.50
57192;BME280;43052;52.588;13.396;2022-10-17T09:22:56;101795.09;;;41.87;17.81
57192;BME280;43052;52.588;13.396;2022-10-17T09:25:22;101790.63;;;42.01;18.10
57192;BME280;43052;52.588;13.396;2022-10-17T09:28:13;101787.88;;;42.01;18.21
57192;BME280;43052;52.588;13.396;2022-10-17T09:30:43;101785.28;;;41.78;17.45
57192;BME280;43052;52.588;13.396;2022-10-17T09:33:20;101783.28;;;41.42;18.45
57192;BME280;43052;52.588;13.396;2022-10-17T09:35:47;101777.41;;;41.75;17.98
57192;BME280;43052;52.588;13.396;2022-10-17T09:38:22;101778.44;;;41.89;18.12
57192;BME280;43052;52.588;13.396;2022-10-17T09:40:56;101775.88;;;41.87;17.91
57192;BME280;43052;52.588;13.396;2022-10-17T09:43:23;101781.22;;;42.10;17.77
57192;BME280;43052;52.588;13.396;2022-10-17T09:46:05;101773.84;;;42.11;17.63
57192;BME280;43052;52.588;13.396;2022-10-17T09:48:44;101774.66;;;41.90;17.77
57192;BME280;43052;52.588;13.396;2022-10-17T09:51:11;101761.97;;;41.74;18.11
57192;BME280;43052;52.588;13.396;2022-10-17T09:53:39;101775.44;;;41.54;18.52
57192;BME280;43052;52.588;13.396;2022-10-17T09:56:12;101772.19;;;41.95;17.91
57192;BME280;43052;52.588;13.396;2022-10-17T09:58:48;101765.97;;;42.45;17.23
57192;BME280;43052;52.588;13.396;2022-10-17T10:01:18;101767.16;;;42.79;17.11
57192;BME280;43052;52.588;13.396;2022-10-17T10:03:43;101770.47;;;43.02;16.85
57192;BME280;43052;52.588;13.396;2022-10-17T10:06:17;101772.72;;;42.92;16.85
57192;BME280;43052;52.588;13.396;2022-10-17T10:08:53;101763.94;;;41.95;17.59
57192;BME280;43052;52.588;13.396;2022-10-17T10:11:47;101771.06;;;41.14;18.61
57192;BME280;43052;52.588;13.396;2022-10-17T10:14:31;101770.53;;;40.81;18.60
57192;BME280;43052;52.588;13.396;2022-10-17T10:17:02;101776.97;;;40.10;19.47
57192;BME280;43052;52.588;13.396;2022-10-17T10:19:33;101774.06;;;38.99;20.42
57192;BME280;43052;52.588;13.396;2022-10-17T10:22:03;101773.03;;;38.34;21.28
57192;BME280;43052;52.588;13.396;2022-10-17T10:24:29;101780.00;;;36.98;22.71
57192;BME280;43052;52.588;13.396;2022-10-17T10:26:57;101765.28;;;36.36;23.82
57192;BME280;43052;52.588;13.396;2022-10-17T10:29:40;101780.53;;;35.26;25.35
57192;BME280;43052;52.588;13.396;2022-10-17T10:32:17;101775.97;;;34.48;26.14
57192;BME280;43052;52.588;13.396;2022-10-17T10:35:05;101785.09;;;34.37;26.22
57192;BME280;43052;52.588;13.396;2022-10-17T10:37:39;101766.41;;;34.73;26.12
57192;BME280;43052;52.588;13.396;2022-10-17T10:40:37;101784.56;;;34.63;25.87
57192;BME280;43052;52.588;13.396;2022-10-17T10:43:20;101779.13;;;32.98;28.03
57192;BME280;43052;52.588;13.396;2022-10-17T10:45:47;101766.38;;;31.67;30.24
57192;BME280;43052;52.588;13.396;2022-10-17T10:48:33;101772.84;;;30.70;31.88
57192;BME280;43052;52.588;13.396;2022-10-17T10:51:05;101778.25;;;30.09;32.76
57192;BME280;43052;52.588;13.396;2022-10-17T10:56:18;101765.13;;;28.59;34.88
57192;BME280;43052;52.588;13.396;2022-10-17T10:58:57;101751.91;;;28.14;36.29
57192;BME280;43052;52.588;13.396;2022-10-17T11:01:41;101755.16;;;28.05;37.02
57192;BME280;43052;52.588;13.396;2022-10-17T11:04:19;101751.34;;;27.94;36.82
57192;BME280;43052;52.588;13.396;2022-10-17T11:06:46;101754.31;;;27.75;37.15
57192;BME280;43052;52.588;13.396;2022-10-17T11:09:23;101765.53;;;27.53;37.76
57192;BME280;43052;52.588;13.396;2022-10-17T11:11:58;101752.75;;;27.28;38.09
57192;BME280;43052;52.588;13.396;2022-10-17T11:14:37;101749.84;;;27.16;38.29
57192;BME280;43052;52.588;13.396;2022-10-17T11:17:29;101741.53;;;26.90;38.93
57192;BME280;43052;52.588;13.396;2022-10-17T11:22:41;101746.00;;;26.27;39.77
57192;BME280;43052;52.588;13.396;2022-10-17T11:25:30;101732.53;;;26.13;40.63
57192;BME280;43052;52.588;13.396;2022-10-17T11:27:56;101736.22;;;25.94;40.53
57192;BME280;43052;52.588;13.396;2022-10-17T11:30:23;101733.50;;;25.78;40.91
57192;BME280;43052;52.588;13.396;2022-10-17T11:32:56;101729.69;;;25.67;41.46
57192;BME280;43052;52.588;13.396;2022-10-17T11:35:27;101724.03;;;25.55;41.75
57192;BME280;43052;52.588;13.396;2022-10-17T11:38:18;101736.81;;;25.50;41.94
57192;BME280;43052;52.588;13.396;2022-10-17T11:40:49;101729.38;;;25.38;42.05
57192;BME280;43052;52.588;13.396;2022-10-17T11:43:19;101733.34;;;25.30;42.46
57192;BME280;43052;52.588;13.396;2022-10-17T11:45:49;101737.06;;;25.28;42.47
57192;BME280;43052;52.588;13.396;2022-10-17T11:48:21;101731.69;;;25.28;42.42
57192;BME280;43052;52.588;13.396;2022-10-17T11:50:51;101734.38;;;25.28;42.15
57192;BME280;43052;52.588;13.396;2022-10-17T11:53:21;101728.22;;;25.26;42.13
57192;BME280;43052;52.588;13.396;2022-10-17T11:55:48;101721.13;;;25.25;42.31
57192;BME280;43052;52.588;13.396;2022-10-17T11:58:26;101731.16;;;25.21;42.09
57192;BME280;43052;52.588;13.396;2022-10-17T12:01:14;101729.41;;;25.20;42.17
57192;BME280;43052;52.588;13.396;2022-10-17T12:03:59;101716.81;;;25.22;42.30
57192;BME280;43052;52.588;13.396;2022-10-17T12:09:37;101702.06;;;25.31;41.60
57192;BME280;43052;52.588;13.396;2022-10-17T12:12:05;101727.75;;;25.53;41.59
57192;BME280;43052;52.588;13.396;2022-10-17T12:14:39;101714.34;;;25.53;41.66
57192;BME280;43052;52.588;13.396;2022-10-17T12:19:47;101710.75;;;25.54;41.43
57192;BME280;43052;52.588;13.396;2022-10-17T12:22:20;101717.47;;;25.61;41.44
57192;BME280;43052;52.588;13.396;2022-10-17T12:24:59;101705.28;;;25.55;41.56
57192;BME280;43052;52.588;13.396;2022-10-17T12:27:35;101704.50;;;25.53;41.83
57192;BME280;43052;52.588;13.396;2022-10-17T12:30:05;101706.47;;;25.49;41.78
57192;BME280;43052;52.588;13.396;2022-10-17T12:32:32;101701.78;;;25.37;42.24
57192;BME280;43052;52.588;13.396;2022-10-17T12:34:57;101701.84;;;25.35;41.75
57192;BME280;43052;52.588;13.396;2022-10-17T12:43:31;101692.19;;;25.15;42.63
57192;BME280;43052;52.588;13.396;2022-10-17T12:45:58;101704.31;;;25.05;42.81
57192;BME280;43052;52.588;13.396;2022-10-17T12:51:07;101706.84;;;24.91;43.04
57192;BME280;43052;52.588;13.396;2022-10-17T12:53:57;101706.38;;;24.82;43.32
57192;BME280;43052;52.588;13.396;2022-10-17T12:56:41;101689.84;;;24.74;43.39
57192;BME280;43052;52.588;13.396;2022-10-17T12:59:12;101684.59;;;24.73;43.77
57192;BME280;43052;52.588;13.396;2022-10-17T13:01:38;101696.16;;;24.73;43.82
57192;BME280;43052;52.588;13.396;2022-10-17T13:04:08;101690.88;;;24.71;43.97
57192;BME280;43052;52.588;13.396;2022-10-17T13:06:42;101691.81;;;24.70;44.20
57192;BME280;43052;52.588;13.396;2022-10-17T13:09:23;101686.63;;;24.67;44.14
57192;BME280;43052;52.588;13.396;2022-10-17T13:11:50;101682.19;;;24.66;43.75
57192;BME280;43052;52.588;13.396;2022-10-17T13:14:18;101679.81;;;24.60;44.08
57192;BME280;43052;52.588;13.396;2022-10-17T13:16:54;101684.16;;;24.63;44.04
57192;BME280;43052;52.588;13.396;2022-10-17T13:19:23;101677.00;;;24.63;44.19
57192;BME280;43052;52.588;13.396;2022-10-17T13:22:19;101687.75;;;24.62;44.17
57192;BME280;43052;52.588;13.396;2022-10-17T13:24:49;101680.69;;;24.61;44.34
57192;BME280;43052;52.588;13.396;2022-10-17T13:27:29;101674.72;;;24.55;44.52
57192;BME280;43052;52.588;13.396;2022-10-17T13:29:57;101683.13;;;24.65;44.13